createdAt,value
2018-10-17T00:03:00.799Z,11.10
2018-10-17T00:08:08.034Z,11.20
2018-10-17T00:13:11.652Z,11.20
2018-10-17T00:18:15.252Z,11.20
2018-10-17T00:23:18.788Z,11.10
2018-10-17T00:28:22.366Z,11.00
2018-10-17T00:33:25.914Z,10.90
2018-10-17T00:38:29.458Z,10.80
2018-10-17T00:43:33.090Z,11.00
2018-10-17T00:48:36.748Z,11.10
2018-10-17T00:53:40.284Z,10.80
2018-10-17T00:58:53.698Z,10.60
2018-10-17T01:04:00.456Z,10.50
2018-10-17T01:09:07.622Z,10.50
2018-10-17T01:14:11.390Z,9.80
2018-10-17T01:19:15.016Z,10.50
2018-10-17T01:24:18.493Z,10.60
2018-10-17T01:29:22.017Z,10.40
2018-10-17T01:34:25.545Z,10.30
2018-10-17T01:39:30.115Z,10.40
2018-10-17T01:44:33.633Z,10.30
2018-10-17T01:49:37.182Z,10.40
2018-10-17T01:54:40.770Z,10.50
2018-10-17T01:59:44.474Z,10.20
2018-10-17T02:04:47.978Z,10.10
2018-10-17T02:09:51.571Z,10.00
2018-10-17T02:14:55.238Z,10.10
2018-10-17T02:19:58.753Z,9.90
2018-10-17T02:25:02.466Z,9.90
2018-10-17T02:30:06.467Z,10.00
2018-10-17T02:35:17.711Z,9.90
2018-10-17T02:40:21.335Z,9.90
2018-10-17T02:45:24.993Z,9.90
2018-10-17T02:50:28.527Z,9.70
2018-10-17T02:55:32.067Z,9.60
2018-10-17T03:00:35.692Z,9.50
2018-10-17T03:05:39.208Z,9.50
2018-10-17T03:10:42.754Z,9.40
2018-10-17T03:15:46.343Z,9.50
2018-10-17T03:20:49.897Z,9.40
2018-10-17T03:25:53.417Z,9.40
2018-10-17T03:30:57.086Z,9.40
2018-10-17T03:36:00.743Z,9.30
2018-10-17T03:41:04.381Z,9.30
2018-10-17T03:46:07.912Z,9.30
2018-10-17T03:51:11.582Z,9.20
2018-10-17T03:56:15.665Z,9.10
2018-10-17T04:01:19.220Z,9.10
2018-10-17T04:06:22.826Z,9.00
2018-10-17T04:11:26.558Z,9.00
2018-10-17T04:16:30.275Z,9.10
2018-10-17T04:21:35.986Z,9.20
2018-10-17T04:26:39.578Z,9.00
2018-10-17T04:31:43.243Z,8.80
2018-10-17T04:36:46.775Z,8.90
2018-10-17T04:41:50.329Z,8.80
2018-10-17T04:46:55.505Z,8.70
2018-10-17T04:52:00.218Z,8.60
2018-10-17T04:57:05.547Z,8.80
2018-10-17T05:02:09.447Z,8.90
2018-10-17T05:07:13.377Z,8.80
2018-10-17T05:12:16.910Z,8.80
2018-10-17T05:17:20.697Z,8.90
2018-10-17T05:22:24.315Z,8.80
2018-10-17T05:27:28.040Z,8.70
2018-10-17T05:32:31.614Z,8.70
2018-10-17T05:37:35.393Z,8.50
2018-10-17T05:42:39.013Z,9.70
2018-10-17T05:47:42.964Z,8.50
2018-10-17T05:52:46.510Z,8.60
2018-10-17T05:57:50.467Z,8.60
2018-10-17T06:02:54.971Z,8.50
2018-10-17T06:08:01.342Z,8.40
2018-10-17T06:13:05.343Z,8.60
2018-10-17T06:18:09.079Z,8.90
2018-10-17T06:23:12.767Z,8.90
2018-10-17T06:28:16.488Z,9.00
2018-10-17T06:33:20.269Z,9.00
2018-10-17T06:38:23.883Z,9.00
2018-10-17T06:43:27.840Z,9.30
2018-10-17T06:48:31.403Z,9.50
2018-10-17T06:53:34.950Z,9.80
2018-10-17T06:58:38.467Z,8.70
2018-10-17T07:03:41.986Z,10.10
2018-10-17T07:08:46.194Z,10.40
2018-10-17T07:13:49.944Z,10.50
2018-10-17T07:18:53.681Z,10.50
2018-10-17T07:23:57.367Z,10.60
2018-10-17T07:29:00.918Z,10.70
2018-10-17T07:34:04.526Z,10.80
2018-10-17T07:39:09.782Z,11.00
2018-10-17T07:44:13.378Z,11.30
2018-10-17T07:49:17.070Z,11.40
2018-10-17T07:54:20.813Z,11.50
2018-10-17T07:59:24.307Z,11.70
2018-10-17T08:04:27.838Z,12.00
2018-10-17T08:09:31.350Z,13.10
2018-10-17T08:14:44.494Z,14.40
2018-10-17T08:19:48.115Z,14.90
2018-10-17T08:24:51.691Z,15.40
2018-10-17T08:29:55.313Z,15.70
2018-10-17T08:34:59.964Z,16.00
2018-10-17T08:40:03.762Z,16.40
2018-10-17T08:45:07.445Z,16.90
2018-10-17T08:50:11.133Z,17.10
2018-10-17T08:55:14.697Z,17.40
2018-10-17T09:00:18.266Z,18.20
2018-10-17T09:05:21.830Z,19.20
2018-10-17T09:10:25.491Z,19.60
2018-10-17T09:15:29.118Z,20.00
2018-10-17T09:20:33.223Z,20.10
2018-10-17T09:25:36.391Z,19.50
2018-10-17T09:30:40.044Z,18.80
2018-10-17T09:35:43.634Z,19.00
2018-10-17T09:40:47.230Z,18.90
2018-10-17T09:45:50.859Z,19.90
2018-10-17T09:50:54.558Z,20.60
2018-10-17T09:55:58.249Z,21.70
2018-10-17T10:01:07.123Z,20.90
2018-10-17T10:06:14.234Z,20.30
2018-10-17T10:11:17.874Z,21.10
2018-10-17T10:16:22.625Z,19.90
2018-10-17T10:21:26.275Z,20.30
2018-10-17T10:26:30.866Z,19.70
2018-10-17T10:31:34.472Z,19.70
2018-10-17T10:36:38.051Z,19.40
2018-10-17T10:41:42.146Z,19.40
2018-10-17T10:46:46.181Z,19.30
2018-10-17T10:51:49.796Z,19.60
2018-10-17T10:56:53.784Z,19.50
2018-10-17T11:01:57.488Z,19.50
2018-10-17T11:07:01.038Z,19.50
2018-10-17T11:12:04.780Z,19.70
2018-10-17T11:17:08.382Z,19.60
2018-10-17T11:22:12.028Z,19.80
2018-10-17T11:27:15.785Z,19.80
2018-10-17T11:32:20.160Z,19.60
2018-10-17T11:37:23.961Z,20.00
2018-10-17T11:42:31.030Z,20.00
2018-10-17T11:47:34.848Z,19.70
2018-10-17T11:52:38.744Z,19.70
2018-10-17T11:57:42.280Z,19.70
2018-10-17T12:02:52.153Z,19.90
2018-10-17T12:07:55.878Z,19.90
2018-10-17T12:13:02.066Z,20.10
2018-10-17T12:18:05.725Z,20.00
2018-10-17T12:23:10.561Z,20.00
2018-10-17T12:28:14.168Z,20.40
2018-10-17T12:33:17.890Z,20.60
2018-10-17T12:38:21.551Z,20.50
2018-10-17T12:43:25.156Z,20.30
2018-10-17T12:48:29.810Z,19.80
2018-10-17T12:53:34.489Z,20.20
2018-10-17T12:58:38.462Z,19.90
2018-10-17T13:04:05.858Z,20.40
2018-10-17T13:09:11.486Z,20.40
2018-10-17T13:14:15.064Z,20.70
2018-10-17T13:19:18.643Z,20.60
2018-10-17T13:24:23.546Z,20.50
2018-10-17T13:29:30.583Z,20.20
2018-10-17T13:34:36.570Z,20.50
2018-10-17T13:39:40.326Z,20.40
2018-10-17T13:44:43.953Z,20.40
2018-10-17T13:49:47.946Z,20.60
2018-10-17T13:54:55.137Z,20.20
2018-10-17T14:00:02.235Z,19.80
2018-10-17T14:05:06.487Z,19.60
2018-10-17T14:10:12.268Z,19.60
2018-10-17T14:15:16.108Z,20.00
2018-10-17T14:20:20.265Z,20.30
2018-10-17T14:25:23.905Z,19.90
2018-10-17T14:30:27.601Z,19.90
2018-10-17T14:35:32.458Z,20.50
2018-10-17T14:40:37.904Z,20.70
2018-10-17T14:45:42.609Z,20.70
2018-10-17T14:50:46.248Z,20.10
2018-10-17T14:55:50.254Z,20.00
2018-10-17T15:00:53.709Z,20.30
2018-10-17T15:05:58.790Z,20.40
2018-10-17T15:11:03.653Z,20.50
2018-10-17T15:16:07.211Z,20.40
2018-10-17T15:21:14.523Z,20.30
2018-10-17T15:26:18.231Z,20.30
2018-10-17T15:31:21.927Z,20.10
2018-10-17T15:36:25.555Z,20.10
2018-10-17T15:41:30.563Z,20.00
2018-10-17T15:46:41.133Z,19.90
2018-10-17T15:51:44.895Z,19.70
2018-10-17T15:56:49.547Z,19.40
2018-10-17T16:01:53.311Z,19.10
2018-10-17T16:06:57.994Z,18.70
2018-10-17T16:12:03.506Z,18.40
2018-10-17T16:17:09.340Z,18.20
2018-10-17T16:22:12.863Z,18.00
2018-10-17T16:27:16.914Z,17.80
2018-10-17T16:32:20.536Z,17.60
2018-10-17T16:37:24.186Z,17.50
2018-10-17T16:42:27.770Z,17.30
2018-10-17T16:47:31.492Z,17.10
2018-10-17T16:52:35.803Z,16.90
2018-10-17T16:57:40.487Z,16.70
2018-10-17T17:02:44.421Z,16.50
2018-10-17T17:07:48.300Z,16.40
2018-10-17T17:12:51.931Z,16.20
2018-10-17T17:17:59.147Z,16.00
2018-10-17T17:23:03.791Z,15.90
2018-10-17T17:28:07.701Z,15.70
2018-10-17T17:33:11.649Z,15.60
2018-10-17T17:38:16.477Z,15.50
2018-10-17T17:43:20.328Z,15.50
2018-10-17T17:48:24.002Z,15.30
2018-10-17T17:53:28.063Z,15.10
2018-10-17T17:58:32.112Z,15.00
2018-10-17T18:03:35.756Z,15.00
2018-10-17T18:08:46.863Z,14.90
2018-10-17T18:13:53.641Z,14.80
2018-10-17T18:18:57.424Z,14.80
2018-10-17T18:24:01.016Z,14.60
2018-10-17T18:29:04.796Z,14.60
2018-10-17T18:34:10.497Z,14.50
2018-10-17T18:39:14.119Z,14.40
2018-10-17T18:44:19.049Z,14.30
2018-10-17T18:49:22.710Z,14.40
2018-10-17T18:54:26.332Z,14.30
2018-10-17T18:59:29.917Z,14.00
2018-10-17T19:04:35.874Z,13.90
2018-10-17T19:10:04.700Z,13.80
2018-10-17T19:15:08.491Z,13.80
2018-10-17T19:20:16.211Z,13.60
2018-10-17T19:25:19.946Z,13.60
2018-10-17T19:30:23.747Z,13.60
2018-10-17T19:35:28.368Z,13.50
2018-10-17T19:40:32.002Z,13.50
2018-10-17T19:45:36.619Z,13.50
2018-10-17T19:50:40.376Z,13.70
2018-10-17T19:55:44.109Z,13.60
2018-10-17T20:00:48.434Z,13.30
2018-10-17T20:05:52.158Z,13.10
2018-10-17T20:10:56.444Z,13.10
2018-10-17T20:16:00.208Z,13.20
2018-10-17T20:21:05.048Z,13.30
2018-10-17T20:26:09.934Z,13.20
2018-10-17T20:31:13.831Z,13.00
2018-10-17T20:36:17.649Z,13.10
2018-10-17T20:41:21.504Z,12.90
2018-10-17T20:46:25.320Z,12.80
2018-10-17T20:51:30.071Z,12.70
2018-10-17T20:56:33.676Z,12.80
2018-10-17T21:01:37.728Z,12.70
2018-10-17T21:06:41.710Z,12.50
2018-10-17T21:11:47.851Z,12.40
2018-10-17T21:16:51.612Z,12.40
2018-10-17T21:21:55.347Z,12.40
2018-10-17T21:26:59.212Z,12.20
2018-10-17T21:32:02.870Z,12.20
2018-10-17T21:37:07.098Z,12.20
2018-10-17T21:42:11.798Z,12.20
2018-10-17T21:47:15.443Z,12.20
2018-10-17T21:52:19.183Z,11.90
2018-10-17T21:57:22.788Z,11.80
2018-10-17T22:02:26.550Z,11.80
2018-10-17T22:07:30.094Z,11.80
2018-10-17T22:12:35.659Z,11.70
2018-10-17T22:17:39.194Z,12.00
2018-10-17T22:22:42.846Z,11.90
2018-10-17T22:27:46.474Z,11.70
2018-10-17T22:32:50.109Z,11.60
2018-10-17T22:37:53.926Z,11.50
2018-10-17T22:42:57.463Z,11.40
2018-10-17T22:48:01.073Z,11.50
2018-10-17T22:53:04.941Z,11.50
2018-10-17T22:58:08.527Z,11.60
2018-10-17T23:03:12.055Z,11.50
2018-10-17T23:08:15.710Z,11.30
2018-10-17T23:13:21.392Z,11.30
2018-10-17T23:18:24.926Z,11.40
2018-10-17T23:23:28.461Z,11.30
2018-10-17T23:28:33.077Z,11.20
2018-10-17T23:33:36.819Z,11.20
2018-10-17T23:38:40.357Z,11.10
2018-10-17T23:43:45.114Z,10.90
2018-10-17T23:48:48.824Z,10.80
2018-10-17T23:53:52.460Z,10.80
2018-10-17T23:58:57.690Z,10.80
